createdAt,value
2019-04-26T00:00:42.016Z,15.76
2019-04-26T00:03:18.590Z,15.76
2019-04-26T00:05:50.613Z,15.70
2019-04-26T00:08:20.823Z,15.69
2019-04-26T00:11:01.436Z,15.71
2019-04-26T00:13:49.874Z,15.64
2019-04-26T00:16:31.301Z,15.59
2019-04-26T00:19:01.723Z,15.65
2019-04-26T00:21:32.586Z,15.65
2019-04-26T00:24:03.908Z,15.65
2019-04-26T00:26:34.936Z,15.66
2019-04-26T00:29:05.449Z,15.72
2019-04-26T00:31:35.726Z,15.73
2019-04-26T00:34:05.921Z,15.70
2019-04-26T00:36:36.605Z,15.67
2019-04-26T00:39:08.405Z,15.67
2019-04-26T00:41:39.601Z,15.69
2019-04-26T00:44:09.970Z,15.69
2019-04-26T00:46:41.818Z,15.67
2019-04-26T00:49:13.822Z,15.65
2019-04-26T00:51:44.805Z,15.62
2019-04-26T00:54:15.481Z,15.64
2019-04-26T00:56:45.778Z,15.64
2019-04-26T00:59:16.523Z,15.65
2019-04-26T01:01:50.406Z,15.68
2019-04-26T01:04:20.994Z,15.67
2019-04-26T01:06:53.749Z,15.71
2019-04-26T01:09:25.656Z,15.65
2019-04-26T01:11:56.503Z,15.74
2019-04-26T01:14:26.829Z,15.78
2019-04-26T01:16:57.173Z,15.78
2019-04-26T01:19:27.601Z,15.74
2019-04-26T01:22:01.223Z,15.79
2019-04-26T01:24:35.032Z,15.71
2019-04-26T01:27:05.609Z,15.73
2019-04-26T01:29:38.852Z,15.75
2019-04-26T01:32:11.716Z,15.74
2019-04-26T01:34:42.249Z,15.76
2019-04-26T01:37:12.782Z,15.78
2019-04-26T01:39:49.439Z,15.73
2019-04-26T01:42:47.736Z,15.72
2019-04-26T01:45:23.659Z,15.68
2019-04-26T01:47:56.397Z,15.79
2019-04-26T01:50:28.213Z,15.79
2019-04-26T01:52:59.950Z,15.87
2019-04-26T01:55:31.554Z,16.05
2019-04-26T01:58:04.900Z,16.18
2019-04-26T02:00:52.890Z,16.26
2019-04-26T02:03:26.516Z,16.30
2019-04-26T02:05:57.736Z,16.30
2019-04-26T02:08:28.894Z,16.30
2019-04-26T02:10:59.666Z,16.28
2019-04-26T02:13:30.946Z,16.35
2019-04-26T02:16:01.283Z,16.40
2019-04-26T02:18:33.601Z,16.41
2019-04-26T02:21:20.261Z,16.39
2019-04-26T02:24:00.837Z,16.37
2019-04-26T02:26:43.020Z,16.14
2019-04-26T02:29:18.987Z,16.10
2019-04-26T02:31:52.891Z,16.11
2019-04-26T02:34:23.534Z,16.13
2019-04-26T02:36:58.889Z,16.18
2019-04-26T02:39:33.958Z,16.15
2019-04-26T02:42:07.386Z,16.10
2019-04-26T02:44:55.929Z,15.97
2019-04-26T02:48:03.017Z,15.72
2019-04-26T02:50:39.545Z,15.66
2019-04-26T02:53:42.839Z,15.68
2019-04-26T02:56:22.735Z,15.63
2019-04-26T02:59:40.106Z,15.72
2019-04-26T03:02:23.513Z,15.74
2019-04-26T03:04:58.447Z,15.73
2019-04-26T03:08:01.951Z,15.71
2019-04-26T03:10:38.084Z,15.71
2019-04-26T03:13:12.344Z,15.54
2019-04-26T03:16:12.145Z,15.54
2019-04-26T03:19:05.320Z,15.44
2019-04-26T03:21:57.371Z,15.48
2019-04-26T03:24:39.272Z,15.26
2019-04-26T03:27:26.107Z,15.03
2019-04-26T03:30:19.914Z,14.92
2019-04-26T03:33:00.902Z,14.81
2019-04-26T03:36:09.505Z,14.79
2019-04-26T03:39:00.377Z,14.74
2019-04-26T03:42:05.902Z,14.72
2019-04-26T03:44:45.243Z,14.71
2019-04-26T03:47:19.856Z,14.62
2019-04-26T03:50:13.366Z,14.55
2019-04-26T03:53:21.107Z,14.44
2019-04-26T03:56:25.481Z,14.39
2019-04-26T03:59:15.915Z,14.35
2019-04-26T04:02:22.547Z,14.04
2019-04-26T04:05:10.432Z,14.03
2019-04-26T04:07:48.054Z,14.13
2019-04-26T04:10:18.980Z,14.13
2019-04-26T04:13:40.850Z,14.16
2019-04-26T04:17:09.340Z,14.13
2019-04-26T04:20:25.472Z,14.04
2019-04-26T04:23:19.115Z,14.11
2019-04-26T04:25:51.106Z,14.23
2019-04-26T04:28:42.198Z,14.18
2019-04-26T04:31:17.333Z,14.30
2019-04-26T04:34:02.057Z,14.25
2019-04-26T04:36:48.875Z,14.25
2019-04-26T04:39:29.579Z,14.33
2019-04-26T04:42:43.675Z,14.46
2019-04-26T04:46:11.238Z,14.50
2019-04-26T04:49:13.712Z,14.29
2019-04-26T04:51:57.977Z,14.29
2019-04-26T04:54:39.647Z,14.28
2019-04-26T04:57:56.836Z,14.38
2019-04-26T05:01:17.278Z,14.48
2019-04-26T05:03:59.157Z,14.40
2019-04-26T05:07:26.917Z,14.49
2019-04-26T05:10:32.061Z,14.50
2019-04-26T05:13:31.937Z,14.47
2019-04-26T05:16:50.689Z,14.55
2019-04-26T05:20:05.407Z,14.35
2019-04-26T05:22:53.576Z,14.37
2019-04-26T05:26:33.114Z,14.37
2019-04-26T05:29:46.501Z,14.50
2019-04-26T05:32:52.647Z,14.47
2019-04-26T05:35:46.237Z,14.51
2019-04-26T05:39:00.106Z,14.43
2019-04-26T05:42:07.629Z,14.57
2019-04-26T05:45:08.238Z,14.56
2019-04-26T05:48:12.057Z,14.63
2019-04-26T05:51:36.296Z,14.70
2019-04-26T05:55:02.664Z,14.80
2019-04-26T05:58:06.545Z,14.96
2019-04-26T06:01:34.989Z,15.08
2019-04-26T06:04:36.706Z,15.16
2019-04-26T06:08:08.109Z,15.10
2019-04-26T06:10:54.109Z,15.16
2019-04-26T06:14:15.317Z,15.49
2019-04-26T06:17:12.605Z,15.78
2019-04-26T06:20:06.865Z,15.97
2019-04-26T06:23:09.603Z,16.07
2019-04-26T06:25:59.429Z,16.03
2019-04-26T06:29:07.390Z,16.30
2019-04-26T06:31:56.099Z,16.42
2019-04-26T06:34:48.221Z,16.42
2019-04-26T06:37:33.250Z,16.40
2019-04-26T06:40:42.023Z,16.35
2019-04-26T06:43:20.268Z,16.34
2019-04-26T06:46:36.039Z,16.56
2019-04-26T06:50:07.964Z,16.62
2019-04-26T06:52:46.286Z,16.61
2019-04-26T06:55:36.650Z,16.84
2019-04-26T06:58:37.595Z,16.98
2019-04-26T07:01:24.041Z,17.13
2019-04-26T07:04:34.815Z,17.31
2019-04-26T07:07:22.511Z,17.42
2019-04-26T07:10:18.115Z,17.55
2019-04-26T07:13:23.421Z,17.59
2019-04-26T07:16:23.146Z,17.66
2019-04-26T07:19:48.958Z,17.89
2019-04-26T07:22:57.774Z,18.07
2019-04-26T07:26:11.596Z,18.09
2019-04-26T07:29:30.075Z,18.18
2019-04-26T07:32:16.326Z,18.21
2019-04-26T07:35:11.030Z,18.12
2019-04-26T07:38:11.006Z,18.06
2019-04-26T07:41:32.009Z,17.94
2019-04-26T07:44:57.707Z,17.78
2019-04-26T07:47:50.150Z,17.59
2019-04-26T07:51:03.105Z,17.45
2019-04-26T07:54:00.337Z,17.43
2019-04-26T07:57:05.129Z,17.42
2019-04-26T08:00:08.673Z,17.58
2019-04-26T08:03:15.100Z,17.59
2019-04-26T08:06:02.985Z,17.57
2019-04-26T08:08:41.180Z,17.56
2019-04-26T08:11:23.009Z,17.67
2019-04-26T08:14:17.437Z,17.83
2019-04-26T08:17:30.363Z,18.04
2019-04-26T08:20:19.662Z,18.26
2019-04-26T08:22:54.128Z,18.56
2019-04-26T08:25:26.218Z,18.79
2019-04-26T08:27:58.491Z,19.09
2019-04-26T08:30:30.447Z,19.23
2019-04-26T08:33:07.803Z,19.28
2019-04-26T08:35:36.729Z,19.45
2019-04-26T08:38:16.375Z,19.51
2019-04-26T08:40:42.431Z,19.38
2019-04-26T08:43:27.301Z,19.27
2019-04-26T08:46:28.359Z,19.23
2019-04-26T08:49:19.726Z,19.18
2019-04-26T08:51:55.564Z,19.20
2019-04-26T08:54:28.057Z,19.18
2019-04-26T08:57:06.521Z,19.16
2019-04-26T08:59:45.511Z,19.18
2019-04-26T09:02:40.158Z,19.21
2019-04-26T09:05:34.298Z,19.18
2019-04-26T09:08:06.751Z,19.14
2019-04-26T09:10:39.314Z,19.33
2019-04-26T09:13:13.424Z,19.53
2019-04-26T09:16:13.100Z,19.80
2019-04-26T09:18:51.265Z,19.89
2019-04-26T09:21:19.225Z,20.11
2019-04-26T09:24:08.431Z,20.52
2019-04-26T09:26:46.602Z,20.56
2019-04-26T09:29:43.088Z,20.69
2019-04-26T09:32:24.240Z,20.72
2019-04-26T09:34:54.372Z,20.51
2019-04-26T09:37:24.606Z,20.68
2019-04-26T09:39:55.056Z,20.98
2019-04-26T09:42:44.804Z,20.70
2019-04-26T09:45:28.842Z,20.79
2019-04-26T09:48:03.403Z,21.11
2019-04-26T09:50:40.526Z,21.57
2019-04-26T09:53:10.931Z,20.74
2019-04-26T09:55:41.715Z,20.15
2019-04-26T09:58:13.665Z,20.71
2019-04-26T10:00:48.604Z,21.24
2019-04-26T10:03:16.990Z,21.53
2019-04-26T10:05:47.761Z,21.29
2019-04-26T10:08:18.204Z,21.10
2019-04-26T10:10:51.659Z,20.56
2019-04-26T10:13:40.402Z,19.87
2019-04-26T10:16:42.460Z,19.38
2019-04-26T10:19:16.691Z,19.04
2019-04-26T10:21:46.989Z,18.71
2019-04-26T10:24:17.642Z,18.55
2019-04-26T10:26:48.068Z,18.61
2019-04-26T10:29:21.610Z,18.89
2019-04-26T10:31:51.799Z,19.09
2019-04-26T10:34:23.560Z,19.20
2019-04-26T10:36:56.841Z,19.57
2019-04-26T10:39:28.615Z,20.34
2019-04-26T10:41:59.266Z,20.66
2019-04-26T10:44:29.804Z,20.68
2019-04-26T10:47:04.372Z,20.81
2019-04-26T10:49:47.784Z,20.63
2019-04-26T10:52:41.209Z,20.43
2019-04-26T10:55:32.040Z,20.72
2019-04-26T10:58:21.032Z,21.19
2019-04-26T11:00:54.137Z,21.50
2019-04-26T11:03:24.590Z,21.99
2019-04-26T11:05:56.017Z,22.24
2019-04-26T11:08:27.518Z,21.83
2019-04-26T11:10:58.200Z,21.51
2019-04-26T11:13:28.962Z,21.38
2019-04-26T11:16:02.355Z,21.23
2019-04-26T11:18:31.562Z,20.86
2019-04-26T11:21:01.987Z,20.54
2019-04-26T11:23:32.386Z,20.43
2019-04-26T11:26:03.126Z,20.17
2019-04-26T11:28:33.639Z,19.97
2019-04-26T11:31:04.552Z,20.01
2019-04-26T11:33:44.406Z,20.15
2019-04-26T11:36:08.683Z,20.15
2019-04-26T11:38:40.886Z,19.87
2019-04-26T11:41:11.410Z,19.63
2019-04-26T11:43:42.436Z,19.58
2019-04-26T11:46:13.137Z,19.41
2019-04-26T11:48:43.654Z,19.11
2019-04-26T11:51:14.457Z,18.70
2019-04-26T11:53:46.159Z,18.09
2019-04-26T11:56:17.343Z,17.75
2019-04-26T11:58:47.894Z,17.54
2019-04-26T12:01:20.143Z,17.25
2019-04-26T12:04:11.552Z,17.24
2019-04-26T12:07:00.330Z,17.13
2019-04-26T12:09:40.216Z,17.07
2019-04-26T12:12:13.033Z,16.85
2019-04-26T12:14:43.070Z,16.62
2019-04-26T12:17:15.544Z,16.54
2019-04-26T12:19:48.171Z,16.53
2019-04-26T12:22:20.096Z,16.43
2019-04-26T12:24:51.112Z,16.29
2019-04-26T12:27:22.212Z,16.25
2019-04-26T12:29:53.374Z,16.13
2019-04-26T12:32:24.124Z,15.99
2019-04-26T12:34:56.753Z,15.88
2019-04-26T12:37:28.188Z,15.87
2019-04-26T12:39:58.999Z,15.83
2019-04-26T12:42:30.422Z,15.86
2019-04-26T12:45:24.581Z,15.94
2019-04-26T12:47:57.539Z,15.96
2019-04-26T12:50:29.433Z,16.19
2019-04-26T12:53:00.434Z,16.26
2019-04-26T12:55:30.844Z,16.35
2019-04-26T12:58:04.065Z,16.50
2019-04-26T13:00:37.635Z,16.65
2019-04-26T13:03:19.420Z,16.82
2019-04-26T13:05:39.410Z,16.94
2019-04-26T13:08:13.082Z,17.04
2019-04-26T13:11:07.414Z,17.17
2019-04-26T13:13:51.005Z,17.21
2019-04-26T13:16:40.439Z,17.27
2019-04-26T13:19:19.892Z,17.43
2019-04-26T13:21:50.650Z,17.49
2019-04-26T13:24:21.053Z,17.68
2019-04-26T13:26:52.197Z,17.73
2019-04-26T13:29:22.437Z,17.64
2019-04-26T13:31:52.728Z,17.56
2019-04-26T13:34:23.579Z,17.64
2019-04-26T13:36:53.870Z,17.86
2019-04-26T13:39:24.407Z,18.17
2019-04-26T13:42:03.026Z,18.59
2019-04-26T13:44:45.509Z,18.73
2019-04-26T13:47:36.226Z,18.59
2019-04-26T13:50:13.196Z,18.56
2019-04-26T13:52:43.635Z,18.44
2019-04-26T13:55:14.015Z,18.06
2019-04-26T13:57:46.000Z,17.82
2019-04-26T14:00:23.729Z,17.68
2019-04-26T14:02:54.177Z,17.53
2019-04-26T14:05:25.684Z,17.44
2019-04-26T14:07:55.994Z,17.44
2019-04-26T14:10:26.668Z,17.44
2019-04-26T14:12:56.907Z,17.40
2019-04-26T14:15:27.832Z,17.49
2019-04-26T14:18:00.224Z,17.42
2019-04-26T14:20:30.549Z,17.40
2019-04-26T14:23:15.255Z,17.19
2019-04-26T14:26:25.647Z,17.15
2019-04-26T14:28:58.167Z,16.99
2019-04-26T14:31:28.042Z,16.94
2019-04-26T14:34:01.155Z,16.80
2019-04-26T14:36:30.614Z,16.65
2019-04-26T14:39:05.954Z,16.57
2019-04-26T14:41:34.008Z,16.60
2019-04-26T14:44:14.765Z,16.66
2019-04-26T14:46:48.163Z,16.80
2019-04-26T14:49:11.288Z,16.86
2019-04-26T14:51:42.462Z,16.80
2019-04-26T14:54:13.678Z,16.78
2019-04-26T14:56:52.012Z,16.77
2019-04-26T14:59:20.108Z,16.72
2019-04-26T15:02:12.956Z,16.68
2019-04-26T15:04:53.370Z,16.68
2019-04-26T15:07:23.623Z,16.66
2019-04-26T15:09:53.950Z,16.57
2019-04-26T15:12:24.689Z,16.47
2019-04-26T15:14:56.720Z,16.54
2019-04-26T15:17:26.769Z,16.51
2019-04-26T15:19:56.996Z,16.51
2019-04-26T15:22:27.727Z,16.51
2019-04-26T15:24:57.921Z,16.45
2019-04-26T15:27:32.138Z,16.41
2019-04-26T15:30:05.019Z,16.43
2019-04-26T15:32:37.446Z,16.41
2019-04-26T15:35:09.724Z,16.32
2019-04-26T15:37:40.126Z,16.27
2019-04-26T15:40:35.158Z,16.10
2019-04-26T15:43:16.164Z,16.03
2019-04-26T15:46:12.489Z,15.94
2019-04-26T15:49:13.828Z,15.79
2019-04-26T15:51:45.113Z,15.64
2019-04-26T15:54:17.928Z,15.41
2019-04-26T15:56:49.305Z,15.40
2019-04-26T15:59:22.771Z,15.28
2019-04-26T16:01:52.219Z,15.18
2019-04-26T16:04:23.909Z,15.08
2019-04-26T16:06:54.857Z,15.02
2019-04-26T16:09:25.558Z,14.95
2019-04-26T16:11:55.850Z,14.85
2019-04-26T16:14:31.403Z,14.82
2019-04-26T16:17:03.164Z,14.79
2019-04-26T16:19:30.868Z,14.75
2019-04-26T16:22:02.976Z,14.72
2019-04-26T16:24:34.496Z,14.66
2019-04-26T16:27:06.315Z,14.59
2019-04-26T16:30:00.423Z,14.59
2019-04-26T16:32:58.833Z,14.51
2019-04-26T16:35:28.829Z,14.51
2019-04-26T16:38:19.977Z,14.48
2019-04-26T16:40:53.419Z,14.51
2019-04-26T16:43:36.591Z,14.49
2019-04-26T16:45:59.721Z,14.51
2019-04-26T16:48:30.119Z,14.50
2019-04-26T16:51:08.385Z,14.44
2019-04-26T16:53:46.261Z,14.34
2019-04-26T16:56:05.301Z,14.33
2019-04-26T16:58:38.389Z,14.33
2019-04-26T17:01:10.149Z,14.32
2019-04-26T17:03:46.495Z,14.30
2019-04-26T17:06:15.776Z,14.29
2019-04-26T17:08:50.098Z,14.24
2019-04-26T17:11:18.014Z,14.26
2019-04-26T17:13:53.467Z,14.26
2019-04-26T17:16:22.467Z,14.25
2019-04-26T17:18:55.652Z,14.17
2019-04-26T17:21:27.629Z,14.16
2019-04-26T17:24:25.156Z,14.12
2019-04-26T17:27:05.481Z,13.92
2019-04-26T17:29:34.435Z,13.92
2019-04-26T17:32:09.122Z,13.91
2019-04-26T17:34:40.436Z,13.94
2019-04-26T17:37:16.563Z,13.91
2019-04-26T17:39:47.657Z,13.96
2019-04-26T17:42:16.037Z,13.96
2019-04-26T17:44:46.586Z,13.96
2019-04-26T17:47:16.861Z,13.98
2019-04-26T17:49:47.170Z,13.98
2019-04-26T17:52:17.469Z,13.91
2019-04-26T17:54:49.659Z,13.85
2019-04-26T17:57:32.106Z,13.85
2019-04-26T18:00:06.400Z,13.83
2019-04-26T18:02:40.374Z,13.80
2019-04-26T18:05:00.870Z,13.80
2019-04-26T18:07:41.424Z,13.68
2019-04-26T18:10:04.674Z,13.68
2019-04-26T18:12:39.356Z,13.68
2019-04-26T18:15:09.567Z,13.59
2019-04-26T18:17:55.824Z,13.56
2019-04-26T18:20:41.399Z,13.55
2019-04-26T18:23:15.458Z,13.55
2019-04-26T18:25:46.529Z,13.48
2019-04-26T18:28:17.108Z,13.50
2019-04-26T18:30:47.779Z,13.50
2019-04-26T18:33:22.485Z,13.43
2019-04-26T18:35:55.701Z,13.27
2019-04-26T18:38:24.912Z,13.27
2019-04-26T18:41:00.548Z,13.26
2019-04-26T18:43:28.891Z,13.21
2019-04-26T18:46:07.672Z,13.13
2019-04-26T18:48:42.232Z,13.08
2019-04-26T18:51:13.070Z,13.08
2019-04-26T18:54:18.945Z,13.08
2019-04-26T18:56:57.776Z,13.05
2019-04-26T18:59:29.121Z,13.01
2019-04-26T19:02:00.878Z,13.02
2019-04-26T19:04:31.661Z,13.03
2019-04-26T19:07:04.374Z,13.03
2019-04-26T19:09:56.771Z,13.03
2019-04-26T19:12:09.178Z,13.00
2019-04-26T19:15:04.184Z,12.95
2019-04-26T19:17:53.954Z,12.92
2019-04-26T19:20:46.473Z,12.88
2019-04-26T19:23:18.300Z,12.73
2019-04-26T19:25:48.944Z,12.63
2019-04-26T19:28:19.791Z,12.57
2019-04-26T19:30:52.992Z,12.52
2019-04-26T19:33:22.904Z,12.51
2019-04-26T19:35:53.672Z,12.51
2019-04-26T19:38:24.371Z,12.47
2019-04-26T19:40:55.003Z,12.45
2019-04-26T19:43:31.092Z,12.43
2019-04-26T19:46:07.867Z,12.38
2019-04-26T19:49:03.539Z,12.38
2019-04-26T19:52:03.452Z,12.38
2019-04-26T19:54:38.434Z,12.34
2019-04-26T19:57:13.526Z,12.32
2019-04-26T19:59:44.595Z,12.33
2019-04-26T20:02:36.253Z,12.31
2019-04-26T20:05:02.359Z,12.29
2019-04-26T20:07:33.740Z,12.23
2019-04-26T20:10:05.290Z,12.20
2019-04-26T20:12:38.133Z,12.16
2019-04-26T20:15:15.367Z,12.17
2019-04-26T20:17:42.390Z,12.16
2019-04-26T20:20:20.908Z,12.13
2019-04-26T20:22:45.010Z,12.11
2019-04-26T20:25:15.661Z,12.09
2019-04-26T20:27:47.287Z,12.09
2019-04-26T20:30:39.666Z,12.09
2019-04-26T20:33:10.052Z,12.03
2019-04-26T20:35:42.375Z,11.99
2019-04-26T20:38:22.138Z,11.96
2019-04-26T20:41:15.617Z,11.96
2019-04-26T20:44:02.472Z,11.96
2019-04-26T20:46:19.000Z,11.99
2019-04-26T20:48:49.450Z,11.97
2019-04-26T20:51:22.530Z,11.99
2019-04-26T20:53:52.509Z,12.01
2019-04-26T20:56:34.247Z,12.03
2019-04-26T20:59:06.694Z,12.01
2019-04-26T21:01:37.301Z,11.97
2019-04-26T21:04:10.304Z,11.96
2019-04-26T21:06:41.640Z,11.96
2019-04-26T21:09:14.976Z,11.95
2019-04-26T21:11:45.609Z,11.94
2019-04-26T21:14:15.981Z,11.93
2019-04-26T21:16:49.402Z,11.95
2019-04-26T21:19:20.366Z,11.95
2019-04-26T21:21:52.348Z,11.96
2019-04-26T21:24:25.608Z,11.93
2019-04-26T21:27:12.881Z,11.93
2019-04-26T21:30:03.369Z,11.89
2019-04-26T21:32:59.218Z,11.89
2019-04-26T21:35:35.971Z,11.92
2019-04-26T21:38:11.209Z,11.97
2019-04-26T21:40:50.064Z,12.02
2019-04-26T21:43:20.523Z,12.06
2019-04-26T21:45:51.351Z,12.02
2019-04-26T21:48:23.513Z,12.00
2019-04-26T21:50:53.990Z,12.00
2019-04-26T21:53:24.461Z,12.00
2019-04-26T21:55:57.199Z,11.98
2019-04-26T21:58:28.067Z,11.95
2019-04-26T22:01:19.960Z,11.89
2019-04-26T22:03:54.194Z,11.85
2019-04-26T22:06:28.660Z,11.81
2019-04-26T22:09:05.116Z,11.81
2019-04-26T22:11:37.688Z,11.82
2019-04-26T22:14:20.266Z,11.79
2019-04-26T22:17:01.827Z,11.79
2019-04-26T22:19:53.545Z,11.80
2019-04-26T22:22:46.290Z,11.78
2019-04-26T22:25:17.864Z,11.80
2019-04-26T22:27:48.167Z,11.80
2019-04-26T22:30:28.427Z,11.82
2019-04-26T22:32:58.343Z,11.84
2019-04-26T22:35:37.267Z,11.78
2019-04-26T22:38:08.412Z,11.76
2019-04-26T22:40:38.910Z,11.70
2019-04-26T22:43:29.388Z,11.67
2019-04-26T22:46:29.878Z,11.63
2019-04-26T22:49:06.564Z,11.63
2019-04-26T22:51:39.946Z,11.60
2019-04-26T22:54:12.290Z,11.54
2019-04-26T22:56:45.581Z,11.52
2019-04-26T22:59:15.308Z,11.51
2019-04-26T23:01:57.680Z,11.46
2019-04-26T23:04:48.133Z,11.42
2019-04-26T23:07:23.316Z,11.36
2019-04-26T23:09:55.538Z,11.32
2019-04-26T23:12:33.945Z,11.31
2019-04-26T23:15:30.237Z,11.29
2019-04-26T23:18:24.153Z,11.30
2019-04-26T23:21:03.421Z,11.30
2019-04-26T23:23:37.187Z,11.35
2019-04-26T23:26:06.221Z,11.35
2019-04-26T23:28:44.172Z,11.36
2019-04-26T23:31:15.462Z,11.34
2019-04-26T23:33:47.194Z,11.33
2019-04-26T23:36:19.460Z,11.29
2019-04-26T23:38:49.559Z,11.33
2019-04-26T23:41:20.595Z,11.34
2019-04-26T23:43:56.464Z,11.31
2019-04-26T23:46:26.000Z,11.30
2019-04-26T23:48:55.209Z,11.29
2019-04-26T23:51:26.248Z,11.26
2019-04-26T23:53:57.931Z,11.26
2019-04-26T23:56:28.402Z,11.22
2019-04-26T23:58:58.740Z,11.22
